Impacts TAF Board INFO
FOR SITUATIONAL AWARENESS. NOT TO BE USED FOR FLIGHT PLANNING PURPOSES.
IDs:

KMEM - Memphis Intl, TN, US

Issued at 1122 UTC 18 Dec 2017
Updated at 1446 UTC 18 Dec 2017
Potential Impact None Slight Moderate High
Time<<19/03Z 19/04Z 19/05Z 19/06Z 19/07Z 19/08Z 19/09Z 19/10Z 19/11Z 19/12Z 19/13Z 19/14Z 19/15Z>>
Type PRVL PRVL PRVL PRVL PRVL PRVL PRVL PRVL PRVL PRVL PRVL PRVL PRVL
VIS >6 >6 >6 5 5 5 5 5 5 4 4 4 4
CIG 5 5 5 3 3 3 3 3 3 4 4 4 4
Cover OVC OVC OVC OVC OVC OVC OVC OVC OVC OVC OVC OVC OVC
FltCat IFR IFR IFR LIFR LIFR LIFR LIFR LIFR LIFR LIFR LIFR LIFR LIFR
WX -- -- -- BR VCSH BR VCSH BR VCSH BR VCSH BR VCSH BR VCSH -SHRA -SHRA -SHRA -SHRA
WDir 210 210 210 190 190 190 190 190 190 190 190 190 190
WSpd 5 5 5 5 5 5 5 5 5 4 4 4 4
WGst -- -- -- -- -- -- -- -- -- -- -- -- --

Raw TAF
KMEM 181122Z 1812/1918 25006KT 5SM BR OVC002
  TEMPO 1812/1814 3/4SM BR
  FM181600 25007KT P6SM OVC007
  FM182000 24006KT P6SM OVC009
  FM190000 21005KT P6SM OVC005
  FM190600 19005KT 5SM BR VCSH OVC003
  FM191200 19004KT 4SM -SHRA OVC004


METAR Board
Radar Display
Forecast Discussion

FOR SITUATIONAL AWARENESS. NOT TO BE USED FOR FLIGHT PLANNING PURPOSES.